Time;durP1;ratioP1;P1;durP2;ratioP2;P2;SDS_P1;SDS_P2;PMS_P1;PMS_P2;Temp;Humidity;BMP_temperature;BMP_pressure;BME280_temperature;BME280_humidity;BME280_pressure;Samples;Min_cycle;Max_cycle;Signal;HPM_P1;HPM_P2
2021/01/18 00:00:50;;;;;;;11.68;3.47;;;3.90;99.90;;;;;;4866076;29;20029;-78
2021/01/18 00:03:15;;;;;;;12.25;3.17;;;4.00;99.90;;;;;;4867685;29;20029;-77
2021/01/18 00:05:41;;;;;;;16.25;3.67;;;4.10;99.90;;;;;;4866065;29;20030;-77
2021/01/18 00:08:07;;;;;;;18.90;3.75;;;4.10;99.90;;;;;;4865022;29;20029;-78
2021/01/18 00:10:33;;;;;;;13.70;3.80;;;4.10;99.90;;;;;;4865081;29;20050;-77
2021/01/18 00:12:58;;;;;;;15.70;2.97;;;4.20;99.90;;;;;;4850227;29;20042;-77
2021/01/18 00:15:25;;;;;;;16.27;4.03;;;4.20;99.90;;;;;;4861571;29;20108;-77
2021/01/18 00:17:51;;;;;;;13.75;3.67;;;4.10;99.90;;;;;;4863854;29;20475;-77
2021/01/18 00:20:19;;;;;;;14.38;3.22;;;4.10;99.90;;;;;;4859877;29;20033;-77
2021/01/18 00:22:46;;;;;;;17.27;3.65;;;4.00;99.90;;;;;;4860483;29;20117;-77
2021/01/18 00:25:21;;;;;;;16.02;4.22;;;3.90;99.90;;;;;;4866952;29;20037;-76
2021/01/18 00:27:47;;;;;;;18.83;3.95;;;3.90;99.90;;;;;;4859596;29;20072;-78
2021/01/18 00:30:16;;;;;;;20.05;3.30;;;3.90;99.90;;;;;;4860201;29;20040;-75
2021/01/18 00:32:42;;;;;;;17.55;3.78;;;3.80;99.90;;;;;;4861497;29;20060;-77
2021/01/18 00:35:13;;;;;;;12.13;3.92;;;3.80;99.90;;;;;;4861739;29;20458;-78
2021/01/18 00:37:41;;;;;;;20.67;3.00;;;3.80;99.90;;;;;;4844787;29;20025;-77
2021/01/18 00:40:09;;;;;;;17.10;2.97;;;3.80;99.90;;;;;;4843216;29;20056;-77
2021/01/18 00:42:35;;;;;;;13.82;3.55;;;3.80;99.90;;;;;;4856662;29;20109;-78
2021/01/18 00:45:00;;;;;;;16.15;2.83;;;3.70;99.90;;;;;;4865308;29;20112;-77
2021/01/18 00:47:26;;;;;;;18.15;3.50;;;3.70;99.90;;;;;;4844425;29;20029;-77
2021/01/18 00:49:52;;;;;;;12.50;3.13;;;3.70;99.90;;;;;;4844670;29;20113;-77
2021/01/18 00:52:17;;;;;;;9.05;3.00;;;3.70;99.90;;;;;;4860720;29;20049;-78
2021/01/18 00:54:43;;;;;;;14.05;3.47;;;3.70;99.90;;;;;;4861442;29;20033;-78
2021/01/18 00:57:09;;;;;;;9.30;3.42;;;3.70;99.90;;;;;;4844509;29;20037;-77
2021/01/18 00:59:34;;;;;;;24.67;3.75;;;3.70;99.90;;;;;;4859912;29;20505;-75
2021/01/18 01:02:00;;;;;;;9.98;3.10;;;3.70;99.90;;;;;;4859262;29;20048;-77
2021/01/18 01:04:26;;;;;;;16.20;3.58;;;3.70;99.90;;;;;;4870022;29;20033;-77
2021/01/18 01:06:51;;;;;;;9.60;3.20;;;3.70;99.90;;;;;;4859961;29;20041;-77
2021/01/18 01:09:17;;;;;;;9.52;2.83;;;3.60;99.90;;;;;;4860459;29;20485;-77
2021/01/18 01:11:44;;;;;;;16.30;3.35;;;3.50;99.90;;;;;;4860445;29;20582;-77
2021/01/18 01:14:10;;;;;;;12.00;2.83;;;3.50;99.90;;;;;;4857021;29;20579;-78
2021/01/18 01:16:35;;;;;;;20.73;3.35;;;3.50;99.90;;;;;;4860532;29;20022;-79
2021/01/18 01:19:01;;;;;;;14.85;3.45;;;3.40;99.90;;;;;;4844200;29;20068;-77
2021/01/18 01:21:27;;;;;;;17.25;3.38;;;3.50;99.90;;;;;;4844477;29;20120;-77
2021/01/18 01:23:52;;;;;;;13.00;3.25;;;3.40;99.90;;;;;;4844525;29;20033;-78
2021/01/18 01:26:18;;;;;;;12.90;3.70;;;3.40;99.90;;;;;;4859378;29;20054;-77
2021/01/18 01:28:45;;;;;;;10.93;3.80;;;3.40;99.90;;;;;;4859367;29;20375;-77
2021/01/18 01:31:11;;;;;;;11.43;3.22;;;3.40;99.90;;;;;;4859488;29;20049;-78
2021/01/18 01:33:36;;;;;;;9.93;3.30;;;3.40;99.90;;;;;;4859691;29;20089;-76
2021/01/18 01:36:03;;;;;;;23.65;4.72;;;3.40;99.90;;;;;;4860949;29;20017;-76
2021/01/18 01:38:29;;;;;;;15.40;4.30;;;3.40;99.90;;;;;;4860782;29;20022;-76
2021/01/18 01:40:54;;;;;;;22.83;4.03;;;3.40;99.90;;;;;;4860675;29;20393;-76
2021/01/18 01:43:20;;;;;;;20.73;3.88;;;3.40;99.90;;;;;;4866151;29;20038;-77
2021/01/18 01:45:46;;;;;;;21.38;5.35;;;3.40;99.90;;;;;;4861677;29;20436;-77
2021/01/18 01:48:11;;;;;;;17.42;4.40;;;3.30;99.90;;;;;;4864012;29;20113;-77
2021/01/18 01:50:38;;;;;;;7.95;4.13;;;3.30;99.90;;;;;;4843296;29;20033;-77
2021/01/18 01:53:11;;;;;;;11.35;4.68;;;3.40;99.90;;;;;;4845312;29;20129;-77
2021/01/18 01:55:37;;;;;;;15.75;5.40;;;3.40;99.90;;;;;;4861559;29;20517;-77
2021/01/18 01:58:06;;;;;;;15.90;3.97;;;3.40;99.90;;;;;;4859408;29;20029;-78
2021/01/18 02:00:38;;;;;;;14.45;4.07;;;3.40;99.90;;;;;;4860665;29;20518;-76
2021/01/18 02:03:06;;;;;;;15.40;4.38;;;3.40;99.90;;;;;;4857079;29;20052;-77
2021/01/18 02:05:32;;;;;;;15.97;5.33;;;3.40;99.90;;;;;;4858800;29;20230;-77
2021/01/18 02:08:03;;;;;;;14.65;4.63;;;3.40;99.90;;;;;;4858232;29;20791;-77
2021/01/18 02:10:29;;;;;;;18.92;4.22;;;3.40;99.90;;;;;;4859305;29;20089;-76
2021/01/18 02:12:59;;;;;;;19.45;4.85;;;3.40;99.90;;;;;;4858716;29;20033;-75
2021/01/18 02:16:02;;;;;;;16.13;4.72;;;3.40;99.90;;;;;;4859857;29;20104;-77
2021/01/18 02:18:36;;;;;;;15.10;4.40;;;3.40;99.90;;;;;;4860367;29;20033;-76
2021/01/18 02:21:50;;;;;;;17.10;5.10;;;3.40;99.90;;;;;;4858968;29;20483;-77
2021/01/18 02:24:35;;;;;;;13.45;4.63;;;3.40;99.90;;;;;;4843167;29;20040;-77
2021/01/18 02:27:52;;;;;;;14.45;5.28;;;3.40;99.90;;;;;;4858414;29;20428;-77
2021/01/18 02:30:46;;;;;;;16.85;4.15;;;3.40;99.90;;;;;;4827692;29;20049;-77
2021/01/18 02:33:23;;;;;;;12.38;4.75;;;3.40;99.90;;;;;;4845624;29;20112;-77
2021/01/18 02:36:25;;;;;;;8.73;3.72;;;3.30;99.90;;;;;;4860199;29;20037;-76
2021/01/18 02:38:58;;;;;;;20.20;5.10;;;3.30;99.90;;;;;;4837767;29;20486;-77
2021/01/18 02:41:42;;;;;;;12.80;4.80;;;3.30;99.90;;;;;;4859946;29;20038;-77
2021/01/18 02:44:13;;;;;;;11.77;5.03;;;3.30;99.90;;;;;;4858871;29;20036;-77
2021/01/18 02:46:39;;;;;;;15.40;4.05;;;3.40;99.90;;;;;;4858444;29;20540;-77
2021/01/18 02:49:06;;;;;;;21.20;4.97;;;3.30;99.90;;;;;;4860143;29;20036;-77
2021/01/18 02:51:39;;;;;;;19.80;5.13;;;3.40;99.90;;;;;;4859666;29;20061;-77
2021/01/18 02:54:04;;;;;;;15.20;4.72;;;3.50;99.90;;;;;;4859826;29;20144;-77
2021/01/18 02:56:35;;;;;;;23.52;5.20;;;3.50;99.90;;;;;;4843869;29;20136;-77
2021/01/18 02:59:03;;;;;;;17.40;4.00;;;3.50;99.90;;;;;;4862912;29;20499;-77
2021/01/18 03:01:55;;;;;;;11.35;5.00;;;3.50;99.90;;;;;;4861787;29;20018;-77
2021/01/18 03:04:38;;;;;;;12.57;4.65;;;3.60;99.90;;;;;;4862569;29;20029;-77
2021/01/18 03:07:43;;;;;;;22.50;4.97;;;3.60;99.90;;;;;;4862008;29;20042;-77
2021/01/18 03:10:18;;;;;;;17.75;4.45;;;3.70;99.90;;;;;;4778142;30;20043;-77
2021/01/18 03:12:59;;;;;;;15.25;4.00;;;3.70;99.90;;;;;;4838479;29;20045;-76
2021/01/18 03:15:28;;;;;;;13.13;4.60;;;3.70;99.90;;;;;;4846432;29;20368;-76
2021/01/18 03:18:00;;;;;;;20.38;4.43;;;3.70;99.90;;;;;;4862440;29;20028;-78
2021/01/18 03:20:26;;;;;;;18.45;4.50;;;3.60;99.90;;;;;;4866564;29;20028;-77
2021/01/18 03:22:52;;;;;;;12.50;4.28;;;3.60;99.90;;;;;;4869304;29;20061;-77
2021/01/18 03:25:18;;;;;;;15.23;4.07;;;3.60;99.90;;;;;;4863444;29;20052;-77
2021/01/18 03:27:52;;;;;;;17.25;4.32;;;3.50;99.90;;;;;;4862769;29;20033;-77
2021/01/18 03:30:20;;;;;;;16.35;3.55;;;3.50;99.90;;;;;;4853608;29;20041;-77
2021/01/18 03:32:51;;;;;;;14.20;4.23;;;3.50;99.90;;;;;;4862755;29;20479;-78
2021/01/18 03:35:18;;;;;;;17.13;4.22;;;3.40;99.90;;;;;;4861840;29;20282;-75
2021/01/18 03:37:50;;;;;;;10.45;4.10;;;3.40;99.90;;;;;;4860965;29;20029;-77
2021/01/18 03:40:16;;;;;;;12.98;3.67;;;3.40;99.90;;;;;;4861567;29;20029;-77
2021/01/18 03:42:42;;;;;;;11.02;3.70;;;3.50;99.90;;;;;;4845902;29;20148;-77
2021/01/18 03:45:08;;;;;;;20.52;4.55;;;3.40;99.90;;;;;;4860619;29;20510;-77
2021/01/18 03:47:33;;;;;;;12.80;3.85;;;3.50;99.90;;;;;;4860169;29;20055;-77
2021/01/18 03:49:59;;;;;;;20.48;3.70;;;3.50;99.90;;;;;;4860960;29;20026;-77
2021/01/18 03:52:26;;;;;;;9.88;3.70;;;3.50;99.90;;;;;;4861351;29;20052;-78
2021/01/18 03:54:51;;;;;;;13.32;4.65;;;3.60;99.90;;;;;;4861825;29;20514;-77
2021/01/18 03:57:17;;;;;;;15.88;5.10;;;3.70;99.90;;;;;;4859899;29;20029;-76
2021/01/18 03:59:43;;;;;;;15.25;4.20;;;3.70;99.90;;;;;;4845927;29;20042;-76
2021/01/18 04:02:09;;;;;;;13.98;4.18;;;3.60;99.90;;;;;;4861424;29;20041;-77
2021/01/18 04:04:35;;;;;;;14.20;4.30;;;3.60;99.90;;;;;;4862174;29;20029;-77
2021/01/18 04:07:00;;;;;;;18.08;4.70;;;3.60;99.90;;;;;;4862375;29;20025;-78
2021/01/18 04:09:26;;;;;;;14.45;5.13;;;3.60;99.90;;;;;;4859434;29;20038;-77
2021/01/18 04:11:53;;;;;;;12.43;3.67;;;3.70;99.90;;;;;;4861697;29;20108;-76
2021/01/18 04:14:18;;;;;;;25.48;4.57;;;3.80;99.90;;;;;;4844999;29;20394;-77
2021/01/18 04:16:44;;;;;;;15.88;4.05;;;3.80;99.90;;;;;;4859939;29;20029;-77
2021/01/18 04:19:09;;;;;;;18.10;3.85;;;3.80;99.90;;;;;;4860215;29;20499;-77
2021/01/18 04:21:38;;;;;;;12.05;4.30;;;3.80;99.90;;;;;;4861198;29;20033;-77
2021/01/18 04:24:05;;;;;;;13.00;4.07;;;3.80;99.90;;;;;;4860500;29;20029;-77
2021/01/18 04:26:31;;;;;;;14.45;5.28;;;3.90;99.90;;;;;;4844343;29;20542;-77
2021/01/18 04:28:56;;;;;;;24.00;4.18;;;3.90;99.90;;;;;;4860720;29;20117;-77
2021/01/18 04:31:22;;;;;;;16.05;4.88;;;3.90;99.90;;;;;;4844375;29;20029;-77
2021/01/18 04:33:47;;;;;;;19.77;4.60;;;3.90;99.90;;;;;;4860559;29;20033;-76
2021/01/18 04:36:13;;;;;;;20.58;4.40;;;3.90;99.90;;;;;;4860069;29;20025;-77
2021/01/18 04:38:39;;;;;;;25.45;5.30;;;3.90;99.90;;;;;;4860753;29;20382;-76
2021/01/18 04:41:08;;;;;;;31.75;5.32;;;4.00;99.90;;;;;;4844784;29;20036;-77
2021/01/18 04:43:36;;;;;;;17.15;4.10;;;4.00;99.90;;;;;;4860668;29;20026;-77
2021/01/18 04:46:05;;;;;;;10.05;3.20;;;4.00;99.90;;;;;;4860223;29;20044;-77
2021/01/18 04:48:32;;;;;;;17.38;4.25;;;4.00;99.90;;;;;;4840636;29;20034;-77
2021/01/18 04:50:59;;;;;;;22.17;4.20;;;4.10;99.90;;;;;;4856686;29;20042;-77
2021/01/18 04:53:28;;;;;;;15.30;4.18;;;4.00;99.90;;;;;;4861092;29;20440;-77
2021/01/18 04:56:15;;;;;;;25.98;5.15;;;4.00;99.90;;;;;;4862366;29;20029;-77
2021/01/18 04:58:48;;;;;;;27.60;4.90;;;4.00;99.90;;;;;;4843723;29;20029;-77
2021/01/18 05:01:16;;;;;;;26.13;5.28;;;3.90;99.90;;;;;;4859977;29;20054;-77
2021/01/18 05:03:44;;;;;;;19.40;5.60;;;3.90;99.90;;;;;;4845217;29;20444;-78
2021/01/18 05:06:13;;;;;;;22.35;4.80;;;3.80;99.90;;;;;;4860924;29;20502;-77
2021/01/18 05:09:16;;;;;;;16.42;5.78;;;3.80;99.90;;;;;;4860161;29;20029;-77
2021/01/18 05:11:42;;;;;;;21.38;4.57;;;3.80;99.90;;;;;;4859862;29;20037;-77
2021/01/18 05:14:08;;;;;;;23.80;5.43;;;3.80;99.90;;;;;;4860637;29;20458;-76
2021/01/18 05:16:35;;;;;;;20.15;5.20;;;3.80;99.90;;;;;;4858994;29;20030;-76
2021/01/18 05:19:09;;;;;;;22.77;5.73;;;3.80;99.90;;;;;;4859245;29;20018;-77
2021/01/18 05:21:38;;;;;;;25.90;4.97;;;3.90;99.90;;;;;;4855957;29;20036;-77
2021/01/18 05:24:05;;;;;;;23.67;4.72;;;3.80;99.90;;;;;;4854103;29;20034;-76
2021/01/18 05:26:31;;;;;;;24.83;5.30;;;3.90;99.90;;;;;;4858470;29;20529;-77
2021/01/18 05:28:56;;;;;;;20.65;4.80;;;3.90;99.90;;;;;;4858823;29;20029;-76
2021/01/18 05:31:28;;;;;;;29.08;5.15;;;3.90;99.90;;;;;;4859405;29;20448;-77
2021/01/18 05:33:54;;;;;;;26.38;6.30;;;4.00;99.90;;;;;;4860768;29;20387;-76
2021/01/18 05:36:40;;;;;;;23.00;5.38;;;4.00;99.90;;;;;;4859933;29;20033;-77
2021/01/18 05:39:18;;;;;;;15.68;4.55;;;4.00;99.90;;;;;;4857199;29;20022;-76
2021/01/18 05:41:46;;;;;;;26.00;5.88;;;4.10;99.90;;;;;;4858968;29;20384;-77
2021/01/18 05:44:12;;;;;;;12.73;5.40;;;4.10;99.90;;;;;;4859207;29;20463;-76
2021/01/18 05:46:39;;;;;;;23.48;5.00;;;4.10;99.90;;;;;;4857455;29;20070;-76
2021/01/18 05:49:12;;;;;;;27.48;5.93;;;4.20;99.90;;;;;;4843251;29;20017;-77
2021/01/18 05:51:39;;;;;;;25.60;5.40;;;4.10;99.90;;;;;;4852266;29;20129;-75
2021/01/18 05:54:06;;;;;;;25.55;5.40;;;4.20;99.90;;;;;;4859695;29;20077;-77
2021/01/18 05:56:41;;;;;;;38.40;7.05;;;4.20;99.90;;;;;;4859274;29;20030;-76
2021/01/18 05:59:23;;;;;;;20.88;6.13;;;4.20;99.90;;;;;;4859967;29;20100;-76
2021/01/18 06:01:52;;;;;;;19.30;4.82;;;4.30;99.90;;;;;;4843568;29;20147;-77
2021/01/18 06:04:27;;;;;;;44.13;8.00;;;4.30;99.90;;;;;;4859924;29;20487;-77
2021/01/18 06:07:01;;;;;;;23.52;4.75;;;4.30;99.90;;;;;;4859687;29;20026;-77
2021/01/18 06:09:44;;;;;;;20.52;5.20;;;4.30;99.90;;;;;;4839730;29;20038;-78
2021/01/18 06:12:27;;;;;;;28.90;6.47;;;4.40;99.90;;;;;;4860278;29;20101;-77
2021/01/18 06:15:03;;;;;;;20.13;5.57;;;4.40;99.90;;;;;;4841753;29;20026;-77
2021/01/18 06:17:31;;;;;;;34.72;7.60;;;4.40;99.90;;;;;;4860459;29;20030;-78
2021/01/18 06:19:58;;;;;;;;;;;4.40;99.90;;;;;;4859268;29;20040;-77
2021/01/18 06:22:26;;;;;;;38.88;6.22;;;4.40;99.90;;;;;;4859832;29;19943;-77
2021/01/18 06:24:55;;;;;;;15.70;4.93;;;4.40;99.90;;;;;;4858715;29;20116;-77
2021/01/18 06:27:33;;;;;;;33.75;6.53;;;4.40;99.90;;;;;;4858354;29;20109;-77
2021/01/18 06:29:59;;;;;;;20.45;5.18;;;4.50;99.90;;;;;;4863291;29;20038;-78
2021/01/18 06:32:30;;;;;;;21.63;5.65;;;4.50;99.90;;;;;;4865493;29;20029;-77
2021/01/18 06:35:01;;;;;;;24.67;5.88;;;4.50;99.90;;;;;;4845287;29;20093;-78
2021/01/18 06:37:31;;;;;;;24.60;6.35;;;4.50;99.90;;;;;;4858493;29;20038;-78
2021/01/18 06:40:02;;;;;;;21.52;5.70;;;4.50;99.90;;;;;;4865774;29;20104;-77
2021/01/18 06:42:28;;;;;;;26.02;6.72;;;4.60;99.90;;;;;;4860136;29;20034;-78
2021/01/18 06:44:55;;;;;;;23.67;7.10;;;4.70;99.90;;;;;;4853434;29;20045;-77
2021/01/18 06:47:34;;;;;;;28.73;6.45;;;4.60;99.90;;;;;;4846201;29;20029;-78
2021/01/18 06:50:06;;;;;;;27.83;6.18;;;4.60;99.90;;;;;;4861859;29;20090;-77
2021/01/18 06:52:34;;;;;;;30.05;6.40;;;4.60;99.90;;;;;;4860736;29;20132;-77
2021/01/18 06:55:06;;;;;;;27.27;6.00;;;4.60;99.90;;;;;;4862275;29;20360;-77
2021/01/18 06:57:47;;;;;;;33.63;6.47;;;4.60;99.90;;;;;;4861453;29;20022;-77
2021/01/18 07:00:18;;;;;;;29.65;5.40;;;4.60;99.90;;;;;;4859483;29;20038;-77
2021/01/18 07:02:55;;;;;;;21.35;5.68;;;4.60;99.90;;;;;;4862128;29;20031;-77
2021/01/18 07:05:36;;;;;;;27.73;6.75;;;4.60;99.90;;;;;;4844453;29;20041;-77
2021/01/18 07:08:12;;;;;;;26.50;5.30;;;4.60;99.90;;;;;;4863278;29;20026;-77
2021/01/18 07:10:44;;;;;;;28.50;6.93;;;4.70;99.90;;;;;;4862428;29;20112;-78
2021/01/18 07:13:10;;;;;;;23.98;7.68;;;4.70;99.90;;;;;;4870673;29;20025;-78
2021/01/18 07:15:39;;;;;;;24.70;5.68;;;4.70;99.90;;;;;;4862633;29;20392;-78
2021/01/18 07:18:07;;;;;;;20.00;5.72;;;4.80;99.90;;;;;;4862828;29;20025;-78
2021/01/18 07:20:38;;;;;;;21.48;5.07;;;4.80;99.90;;;;;;4847087;29;20033;-77
2021/01/18 07:23:07;;;;;;;27.02;5.50;;;4.80;99.90;;;;;;4868412;29;20041;-78
2021/01/18 07:25:38;;;;;;;22.35;6.38;;;4.80;99.90;;;;;;4862487;29;20030;-78
2021/01/18 07:28:05;;;;;;;20.33;5.13;;;4.80;99.90;;;;;;4862443;29;20025;-78
2021/01/18 07:30:38;;;;;;;30.08;5.63;;;4.80;99.90;;;;;;4861556;29;20093;-78
2021/01/18 07:33:21;;;;;;;36.55;6.07;;;4.80;99.90;;;;;;4851450;29;20090;-78
2021/01/18 07:35:50;;;;;;;26.55;5.90;;;4.80;99.90;;;;;;4861702;29;20551;-78
2021/01/18 07:38:25;;;;;;;15.60;5.50;;;4.80;99.90;;;;;;4864743;29;20078;-79
2021/01/18 07:41:06;;;;;;;22.05;6.00;;;4.80;99.90;;;;;;4862672;29;20037;-79
2021/01/18 07:43:35;;;;;;;34.67;5.38;;;4.90;99.90;;;;;;4860562;29;20041;-77
2021/01/18 07:46:29;;;;;;;40.42;5.25;;;4.90;99.90;;;;;;4861427;29;20037;-78
2021/01/18 07:48:56;;;;;;;25.60;5.03;;;4.90;99.90;;;;;;4858748;29;20451;-77
2021/01/18 07:51:23;;;;;;;13.38;5.47;;;5.00;99.90;;;;;;4860189;29;20411;-79
2021/01/18 07:53:50;;;;;;;19.48;5.40;;;5.00;99.90;;;;;;4847616;29;20564;-79
2021/01/18 07:56:29;;;;;;;28.70;5.68;;;5.00;99.90;;;;;;4845070;29;20040;-78
2021/01/18 07:59:03;;;;;;;19.90;5.20;;;5.00;99.90;;;;;;4864591;29;20033;-79
2021/01/18 08:01:37;;;;;;;19.73;5.45;;;5.10;99.90;;;;;;4849022;29;20048;-78
2021/01/18 08:04:24;;;;;;;25.63;5.53;;;5.10;99.90;;;;;;4863957;29;20033;-78
2021/01/18 08:07:09;;;;;;;29.13;5.95;;;5.00;99.90;;;;;;4841222;29;20134;-79
2021/01/18 08:09:36;;;;;;;22.27;6.78;;;5.00;99.90;;;;;;4863079;29;20081;-79
2021/01/18 08:12:34;;;;;;;22.67;5.88;;;5.00;99.90;;;;;;4861337;29;20037;-79
2021/01/18 08:15:08;;;;;;;21.50;5.05;;;5.00;99.90;;;;;;4843262;29;20087;-79
2021/01/18 08:17:35;;;;;;;21.00;5.20;;;5.00;99.90;;;;;;4837331;29;20033;-77
2021/01/18 08:20:21;;;;;;;33.65;6.47;;;5.10;99.90;;;;;;4858678;29;20026;-77
2021/01/18 08:22:47;;;;;;;28.20;4.93;;;5.00;99.90;;;;;;4854946;29;20060;-77
2021/01/18 08:25:13;;;;;;;26.67;5.90;;;5.00;99.90;;;;;;4861486;29;20060;-78
2021/01/18 08:27:55;;;;;;;30.45;5.82;;;5.00;99.90;;;;;;4862204;29;20081;-78
2021/01/18 08:30:33;;;;;;;19.30;5.25;;;5.00;99.90;;;;;;4876301;29;20041;-78
2021/01/18 08:33:00;;;;;;;;;;;5.00;99.90;;;;;;4861151;29;20034;-77
2021/01/18 08:35:30;;;;;;;25.92;4.95;;;5.00;99.90;;;;;;4859898;29;19940;-76
2021/01/18 08:38:26;;;;;;;18.45;5.53;;;5.00;99.90;;;;;;4862103;29;20446;-78
2021/01/18 08:41:13;;;;;;;24.92;5.45;;;5.10;99.90;;;;;;4860101;29;20041;-77
2021/01/18 08:43:49;;;;;;;29.17;5.13;;;5.10;99.90;;;;;;4855366;29;20491;-78
2021/01/18 08:46:37;;;;;;;23.20;6.03;;;5.10;99.90;;;;;;4861607;29;20029;-78
2021/01/18 08:49:33;;;;;;;18.85;5.45;;;5.10;99.90;;;;;;4860515;29;20482;-77
2021/01/18 08:52:04;;;;;;;24.45;4.88;;;5.20;99.90;;;;;;4857020;29;20132;-79
2021/01/18 08:54:37;;;;;;;23.08;4.60;;;5.20;99.90;;;;;;4861485;29;20049;-78
2021/01/18 08:57:27;;;;;;;20.65;5.50;;;5.20;99.90;;;;;;4855446;29;20057;-76
2021/01/18 09:00:06;;;;;;;25.50;5.70;;;5.20;99.90;;;;;;4861211;29;20021;-79
2021/01/18 09:02:32;;;;;;;25.38;5.40;;;5.30;99.90;;;;;;4864499;29;20041;-79
2021/01/18 09:05:22;;;;;;;20.17;4.82;;;5.40;99.90;;;;;;4858422;29;20128;-80
2021/01/18 09:07:49;;;;;;;21.45;5.32;;;5.50;99.90;;;;;;4859463;29;20045;-79
2021/01/18 09:10:24;;;;;;;19.48;4.93;;;5.60;99.90;;;;;;4859146;29;20093;-80
2021/01/18 09:12:51;;;;;;;17.33;5.18;;;5.70;99.90;;;;;;4865979;29;20090;-79
2021/01/18 09:15:19;;;;;;;28.33;5.10;;;5.70;99.90;;;;;;4850368;29;20032;-80
2021/01/18 09:17:48;;;;;;;23.02;5.25;;;5.70;99.90;;;;;;4850083;29;20037;-79
2021/01/18 09:20:15;;;;;;;24.58;5.20;;;5.80;99.90;;;;;;4865952;29;20061;-81
2021/01/18 09:22:43;;;;;;;20.43;4.87;;;5.80;99.90;;;;;;4867883;29;20037;-80
2021/01/18 09:25:13;;;;;;;16.90;4.30;;;5.90;99.90;;;;;;4862196;29;20033;-80
2021/01/18 09:27:39;;;;;;;18.33;4.85;;;5.90;99.90;;;;;;4860799;29;20025;-80
2021/01/18 09:30:12;;;;;;;23.65;4.30;;;6.00;99.90;;;;;;4860281;29;20040;-79
2021/01/18 09:32:51;;;;;;;27.05;5.38;;;6.00;99.90;;;;;;4858938;29;20034;-80
2021/01/18 09:35:17;;;;;;;15.15;3.70;;;6.10;99.90;;;;;;4863541;29;20034;-79
2021/01/18 09:37:45;;;;;;;19.02;4.72;;;6.10;99.90;;;;;;4855637;29;20025;-79
2021/01/18 09:40:11;;;;;;;21.40;4.93;;;6.10;99.90;;;;;;4863960;29;20029;-79
2021/01/18 09:42:38;;;;;;;15.93;4.72;;;6.20;99.90;;;;;;4862031;29;20101;-82
2021/01/18 09:45:06;;;;;;;24.33;4.72;;;6.20;99.90;;;;;;4865329;29;20145;-81
2021/01/18 09:47:32;;;;;;;32.72;5.57;;;6.20;99.90;;;;;;4865983;29;20057;-82
2021/01/18 09:50:20;;;;;;;16.10;5.40;;;6.20;99.90;;;;;;4868239;29;20084;-82
2021/01/18 09:52:49;;;;;;;15.50;4.25;;;6.20;99.90;;;;;;4858755;29;20122;-78
2021/01/18 09:55:23;;;;;;;16.35;4.60;;;6.20;99.90;;;;;;4843811;29;20116;-77
2021/01/18 09:58:00;;;;;;;22.48;6.72;;;6.20;99.90;;;;;;4858688;29;20036;-78
2021/01/18 10:00:32;;;;;;;12.35;5.32;;;6.30;99.90;;;;;;4834179;29;20124;-77
2021/01/18 10:03:00;;;;;;;15.35;4.45;;;6.30;99.90;;;;;;4842251;29;20059;-78
2021/01/18 10:05:42;;;;;;;25.65;5.38;;;6.40;99.90;;;;;;4858926;29;20033;-78
2021/01/18 10:08:16;;;;;;;20.63;5.82;;;6.40;99.90;;;;;;4849674;29;20033;-78
2021/01/18 10:10:44;;;;;;;21.67;4.70;;;6.50;99.90;;;;;;4867063;29;20387;-77
2021/01/18 10:13:19;;;;;;;12.48;4.43;;;6.50;99.90;;;;;;4863347;29;21120;-78
2021/01/18 10:15:46;;;;;;;20.13;5.20;;;6.40;99.90;;;;;;4850905;29;20410;-77
2021/01/18 10:18:31;;;;;;;20.80;5.85;;;6.50;99.90;;;;;;4865250;29;20045;-77
2021/01/18 10:20:59;;;;;;;11.93;3.75;;;6.50;99.90;;;;;;4865389;29;20040;-77
2021/01/18 10:23:29;;;;;;;26.63;5.00;;;6.50;99.90;;;;;;4865401;29;20081;-75
2021/01/18 10:25:54;;;;;;;11.63;4.95;;;6.60;99.90;;;;;;4863194;29;20068;-79
2021/01/18 10:28:20;;;;;;;17.73;3.83;;;6.70;99.90;;;;;;4864835;29;20465;-76
2021/01/18 10:30:47;;;;;;;33.72;9.55;;;6.70;99.90;;;;;;4868928;29;20240;-78
2021/01/18 10:33:19;;;;;;;26.27;6.20;;;6.80;99.90;;;;;;4863132;29;20034;-77
2021/01/18 10:35:47;;;;;;;16.15;4.28;;;6.70;99.90;;;;;;4858114;29;20053;-78
2021/01/18 10:38:22;;;;;;;20.77;4.18;;;6.70;99.90;;;;;;4867909;29;20022;-79
2021/01/18 10:41:05;;;;;;;22.50;4.03;;;6.70;99.90;;;;;;4850745;29;20037;-80
2021/01/18 10:43:31;;;;;;;17.20;4.40;;;6.90;99.90;;;;;;4863112;29;20041;-79
2021/01/18 10:45:59;;;;;;;17.75;5.00;;;6.80;99.90;;;;;;4859856;29;20158;-80
2021/01/18 10:48:32;;;;;;;12.55;3.78;;;6.90;99.90;;;;;;4861269;29;20542;-77
2021/01/18 10:51:03;;;;;;;10.45;3.85;;;6.90;99.90;;;;;;4856377;29;20069;-78
2021/01/18 10:53:34;;;;;;;19.42;4.35;;;6.90;99.90;;;;;;4860774;29;20049;-79
2021/01/18 10:56:14;;;;;;;24.40;7.80;;;7.00;99.90;;;;;;4861752;29;20508;-77
2021/01/18 10:58:40;;;;;;;19.20;4.00;;;6.90;99.90;;;;;;4847215;29;20033;-77
2021/01/18 11:01:13;;;;;;;27.25;6.93;;;6.80;99.90;;;;;;4848966;29;20491;-78
2021/01/18 11:03:43;;;;;;;24.17;4.97;;;6.80;99.90;;;;;;4859164;29;20030;-78
2021/01/18 11:06:13;;;;;;;16.92;4.65;;;6.80;99.90;;;;;;4845985;29;20044;-78
2021/01/18 11:08:41;;;;;;;16.02;5.55;;;6.80;99.90;;;;;;4856735;29;20069;-78
2021/01/18 11:11:17;;;;;;;;;;;6.80;99.90;;;;;;4851266;29;20045;-81
2021/01/18 11:13:44;;;;;;;21.83;3.95;;;6.80;99.90;;;;;;4860750;29;20007;-77
2021/01/18 11:16:14;;;;;;;15.38;5.05;;;6.80;99.90;;;;;;4861291;29;20028;-81
2021/01/18 11:18:40;;;;;;;16.63;4.63;;;6.80;99.90;;;;;;4859109;29;20032;-81
2021/01/18 11:21:07;;;;;;;15.13;4.07;;;6.90;99.90;;;;;;4847579;29;20101;-80
2021/01/18 11:23:32;;;;;;;16.50;4.72;;;6.90;99.90;;;;;;4843164;29;20037;-78
2021/01/18 11:25:58;;;;;;;20.33;4.25;;;6.90;99.90;;;;;;4862012;29;20034;-77
2021/01/18 11:28:28;;;;;;;22.95;5.38;;;6.90;99.90;;;;;;4861426;29;20029;-79
2021/01/18 11:30:54;;;;;;;15.45;3.63;;;6.90;99.90;;;;;;4862900;29;20395;-77
2021/01/18 11:33:19;;;;;;;20.38;3.65;;;6.90;99.90;;;;;;4861528;29;20036;-78
2021/01/18 11:35:47;;;;;;;19.15;3.65;;;6.90;99.90;;;;;;4860153;29;20112;-79
2021/01/18 11:38:13;;;;;;;21.33;4.83;;;6.90;99.90;;;;;;4868010;29;20378;-79
2021/01/18 11:40:40;;;;;;;20.83;3.90;;;6.90;99.90;;;;;;4853495;29;20103;-79
2021/01/18 11:43:07;;;;;;;64.35;13.02;;;7.00;99.90;;;;;;4866544;29;20028;-78
2021/01/18 11:45:32;;;;;;;14.70;4.72;;;7.00;99.90;;;;;;4862184;29;20113;-81
2021/01/18 11:47:58;;;;;;;18.90;4.60;;;7.00;99.90;;;;;;4847481;29;20080;-80
2021/01/18 11:50:24;;;;;;;17.95;3.40;;;7.00;99.90;;;;;;4851872;29;20029;-78
2021/01/18 11:52:51;;;;;;;17.40;3.90;;;7.10;99.90;;;;;;4863177;29;20767;-82
2021/01/18 11:55:18;;;;;;;19.25;4.40;;;7.10;99.90;;;;;;4865822;29;20050;-82
2021/01/18 11:57:45;;;;;;;28.90;3.92;;;7.00;99.90;;;;;;4847865;29;20034;-82
2021/01/18 12:00:14;;;;;;;22.90;3.40;;;7.10;99.90;;;;;;4861637;29;20481;-82
2021/01/18 12:02:40;;;;;;;11.32;2.78;;;7.10;99.90;;;;;;4865410;29;20040;-79
2021/01/18 12:05:07;;;;;;;12.45;3.40;;;7.20;99.90;;;;;;4862596;29;20033;-82
2021/01/18 12:07:34;;;;;;;14.57;4.07;;;7.20;99.90;;;;;;4860108;29;21463;-79
2021/01/18 12:10:02;;;;;;;15.63;4.35;;;7.10;99.90;;;;;;4857823;29;20030;-80
2021/01/18 12:12:28;;;;;;;32.97;14.27;;;7.20;99.90;;;;;;4844439;29;20037;-81
2021/01/18 12:14:54;;;;;;;15.73;5.28;;;7.30;99.90;;;;;;4846125;29;20076;-81
2021/01/18 12:17:20;;;;;;;19.92;3.47;;;7.40;99.90;;;;;;4861314;29;20034;-84
2021/01/18 12:19:46;;;;;;;14.65;3.30;;;7.40;99.90;;;;;;4860908;29;20507;-80
2021/01/18 12:22:20;;;;;;;15.32;4.70;;;7.40;99.90;;;;;;4861390;29;20030;-82
2021/01/18 12:24:46;;;;;;;10.63;3.10;;;7.40;99.90;;;;;;4860068;29;20159;-83
2021/01/18 12:27:12;;;;;;;13.43;2.95;;;7.50;99.90;;;;;;4864443;29;20042;-84
2021/01/18 12:29:39;;;;;;;24.42;3.50;;;7.60;99.90;;;;;;4862086;29;20022;-79
2021/01/18 12:32:07;;;;;;;19.90;3.50;;;7.50;99.90;;;;;;4860079;29;20494;-79
2021/01/18 12:34:32;;;;;;;17.70;3.58;;;7.50;99.90;;;;;;4850687;29;20048;-79
2021/01/18 12:36:59;;;;;;;14.70;3.22;;;7.50;99.90;;;;;;4867727;29;20030;-80
2021/01/18 12:39:26;;;;;;;16.88;2.80;;;7.40;99.90;;;;;;4864771;29;20568;-81
2021/01/18 12:41:52;;;;;;;19.75;3.05;;;7.40;99.90;;;;;;4867280;29;20036;-78
2021/01/18 12:44:18;;;;;;;17.95;3.53;;;7.40;99.90;;;;;;4867740;29;20077;-81
2021/01/18 12:46:46;;;;;;;24.13;4.82;;;7.40;99.90;;;;;;4868015;29;20092;-80
2021/01/18 12:49:12;;;;;;;19.60;3.33;;;7.40;99.90;;;;;;4855509;29;20056;-81
2021/01/18 12:51:38;;;;;;;8.40;2.95;;;7.50;99.90;;;;;;4852075;29;20050;-78
2021/01/18 12:54:04;;;;;;;13.00;2.85;;;7.50;99.90;;;;;;4849170;29;20083;-82
2021/01/18 12:56:30;;;;;;;22.95;3.53;;;7.50;99.90;;;;;;4855066;29;20029;-85
2021/01/18 12:58:57;;;;;;;11.98;3.50;;;7.60;99.90;;;;;;4869745;29;20041;-79
2021/01/18 13:01:35;;;;;;;10.73;1.67;;;7.70;99.90;;;;;;4863131;29;20038;-78
2021/01/18 13:04:02;;;;;;;13.13;2.25;;;7.80;99.90;;;;;;4870946;29;20048;-81
2021/01/18 13:06:40;;;;;;;13.77;2.20;;;7.90;99.90;;;;;;4863234;29;20197;-79